Time;durP1;ratioP1;P1;durP2;ratioP2;P2;SDS_P1;SDS_P2;PMS_P1;PMS_P2;Temp;Humidity;BMP_temperature;BMP_pressure;BME280_temperature;BME280_humidity;BME280_pressure;Samples;Min_cycle;Max_cycle;Signal;HPM_P1;HPM_P2
2024/01/19 10:42:41;;;;;;;;;2.25;1.00;;;;;;;;5104176;27;13424;-70
2024/01/19 10:45:16;;;;;;;;;0.50;0.50;;;;;;;;5107182;28;10897;-71
2024/01/19 10:47:42;;;;;;;;;1.00;1.00;;;;;;;;5105945;28;10595;-70
2024/01/19 10:50:08;;;;;;;;;3.50;2.00;;;;;;;;5107227;28;11365;-69
2024/01/19 10:52:33;;;;;;;;;1.00;1.00;;;;;;;;5106688;28;10692;-69
2024/01/19 10:54:59;;;;;;;;;2.00;1.00;;;;;;;;5107140;28;10386;-68
2024/01/19 10:57:24;;;;;;;;;1.00;0.00;;;;;;;;5104416;28;8839;-66
2024/01/19 10:59:50;;;;;;;;;0.00;0.00;;;;;;;;5098847;28;8878;-69
2024/01/19 11:02:15;;;;;;;;;1.25;1.25;;;;;;;;5106928;28;8799;-66
2024/01/19 11:04:43;;;;;;;;;0.25;0.00;;;;;;;;5106597;28;8776;-74
2024/01/19 11:07:08;;;;;;;;;0.50;0.00;;;;;;;;5105527;28;8785;-76
2024/01/19 11:09:34;;;;;;;;;0.00;0.00;;;;;;;;5105711;28;9972;-74
2024/01/19 11:12:02;;;;;;;;;1.00;1.00;;;;;;;;5103062;28;8991;-72
2024/01/19 11:14:27;;;;;;;;;0.00;0.00;;;;;;;;5106366;28;9577;-82
2024/01/19 11:16:54;;;;;;;;;0.00;0.00;;;;;;;;5105021;27;10332;-77
2024/01/19 11:19:20;;;;;;;;;18.75;16.75;;;;;;;;5106276;28;8830;-73
2024/01/19 11:21:46;;;;;;;;;2.00;1.50;;;;;;;;5106661;28;11454;-72
2024/01/19 11:24:12;;;;;;;;;0.00;0.00;;;;;;;;5105695;28;11370;-75
2024/01/19 11:26:43;;;;;;;;;2.00;1.00;;;;;;;;5104933;27;8824;-75
2024/01/19 11:29:17;;;;;;;;;2.00;1.00;;;;;;;;5106491;28;8784;-76
2024/01/19 11:31:43;;;;;;;;;0.00;0.00;;;;;;;;5105082;28;10315;-77
2024/01/19 11:34:08;;;;;;;;;1.00;1.00;;;;;;;;5103750;28;10257;-76
2024/01/19 11:36:40;;;;;;;;;0.00;0.00;;;;;;;;5102979;27;8889;-76
2024/01/19 11:39:06;;;;;;;;;0.50;0.00;;;;;;;;5104115;28;8795;-76
2024/01/19 11:41:41;;;;;;;;;0.00;0.00;;;;;;;;5104048;28;10531;-78
2024/01/19 11:44:07;;;;;;;;;4.25;1.00;;;;;;;;5103868;28;10467;-78
2024/01/19 11:46:51;;;;;;;;;1.00;1.00;;;;;;;;5103530;27;10449;-75
2024/01/19 11:49:38;;;;;;;;;0.00;0.00;;;;;;;;5106036;28;8788;-76
2024/01/19 11:52:24;;;;;;;;;3.75;0.50;;;;;;;;5103036;28;10554;-73
2024/01/19 11:54:49;;;;;;;;;1.75;0.75;;;;;;;;5087956;28;10415;-74
2024/01/19 11:57:18;;;;;;;;;0.50;0.50;;;;;;;;5096721;28;10273;-80
2024/01/19 11:59:44;;;;;;;;;2.00;1.50;;;;;;;;5113167;27;8912;-78
2024/01/19 12:02:30;;;;;;;;;7.00;3.00;;;;;;;;5112770;28;10339;-75
2024/01/19 12:05:00;;;;;;;;;8.00;3.50;;;;;;;;5112828;28;8877;-76
2024/01/19 12:07:25;;;;;;;;;8.25;6.50;;;;;;;;5104724;28;10543;-78
2024/01/19 12:10:11;;;;;;;;;15.25;11.75;;;;;;;;5090740;28;10611;-72
2024/01/19 12:12:37;;;;;;;;;5.00;1.25;;;;;;;;5089799;28;8800;-72
2024/01/19 12:15:09;;;;;;;;;2.00;0.50;;;;;;;;5091854;28;10130;-71
2024/01/19 12:17:36;;;;;;;;;0.75;0.00;;;;;;;;5096511;28;8789;-71
2024/01/19 12:20:02;;;;;;;;;1.00;0.00;;;;;;;;5091618;28;10840;-74
2024/01/19 12:22:27;;;;;;;;;0.50;0.50;;;;;;;;5091431;28;10125;-73
2024/01/19 12:25:11;;;;;;;;;2.00;0.00;;;;;;;;5091624;28;9637;-74
2024/01/19 12:27:36;;;;;;;;;0.25;0.00;;;;;;;;5089865;28;8788;-74
2024/01/19 12:30:08;;;;;;;;;0.50;0.00;;;;;;;;5091812;28;10205;-74
2024/01/19 12:32:33;;;;;;;;;0.25;0.00;;;;;;;;5091628;28;8842;-74
2024/01/19 12:34:58;;;;;;;;;0.75;0.75;;;;;;;;5091126;28;10092;-75
2024/01/19 12:37:24;;;;;;;;;1.50;0.00;;;;;;;;5089645;28;8784;-74
2024/01/19 12:39:49;;;;;;;;;0.00;0.00;;;;;;;;5091886;28;8820;-75
2024/01/19 12:42:14;;;;;;;;;2.50;1.00;;;;;;;;5090904;28;8811;-74
2024/01/19 12:47:04;;;;;;;;;4.25;0.75;;;;;;;;5102000;27;13417;-69
2024/01/19 12:49:29;;;;;;;;;4.00;2.00;;;;;;;;5086415;28;10262;-68
2024/01/19 12:51:55;;;;;;;;;3.00;1.00;;;;;;;;5086270;28;9505;-69
2024/01/19 12:54:20;;;;;;;;;1.75;1.50;;;;;;;;5085048;28;8810;-71
2024/01/19 12:56:48;;;;;;;;;0.50;0.00;;;;;;;;5084751;28;8848;-70
2024/01/19 12:59:16;;;;;;;;;3.00;1.00;;;;;;;;5086216;28;8912;-71
2024/01/19 13:01:42;;;;;;;;;0.75;0.75;;;;;;;;5076438;27;10549;-70
2024/01/19 13:04:07;;;;;;;;;5.00;1.00;;;;;;;;5043511;28;10727;-69
2024/01/19 13:06:38;;;;;;;;;2.75;1.00;;;;;;;;5045492;28;10971;-71
2024/01/19 13:09:04;;;;;;;;;2.00;1.00;;;;;;;;5044205;28;8803;-71
2024/01/19 13:11:29;;;;;;;;;0.50;0.50;;;;;;;;5044312;28;10968;-69
2024/01/19 13:14:04;;;;;;;;;1.25;1.25;;;;;;;;5045924;28;9520;-71
2024/01/19 13:16:29;;;;;;;;;1.75;1.00;;;;;;;;5046148;28;8804;-71
2024/01/19 13:19:07;;;;;;;;;3.50;1.00;;;;;;;;5039353;28;10842;-69
2024/01/19 13:21:33;;;;;;;;;0.50;0.50;;;;;;;;5025888;28;8794;-69
2024/01/19 13:23:58;;;;;;;;;6.00;0.00;;;;;;;;5026249;28;10748;-71
2024/01/19 13:26:24;;;;;;;;;1.00;1.00;;;;;;;;5025779;28;8841;-71
2024/01/19 13:28:51;;;;;;;;;2.25;2.00;;;;;;;;5030842;28;8820;-70
2024/01/19 13:31:17;;;;;;;;;3.00;0.00;;;;;;;;5043638;28;10714;-69
2024/01/19 13:33:50;;;;;;;;;2.00;0.00;;;;;;;;5044986;28;8800;-73
2024/01/19 13:36:19;;;;;;;;;2.00;0.75;;;;;;;;5045219;28;10798;-71
2024/01/19 13:38:45;;;;;;;;;0.75;0.00;;;;;;;;5047179;28;10762;-72
2024/01/19 13:41:14;;;;;;;;;1.00;1.00;;;;;;;;5045983;28;10950;-70
2024/01/19 13:43:44;;;;;;;;;2.50;0.50;;;;;;;;5045363;28;8862;-70
2024/01/19 13:46:09;;;;;;;;;2.75;0.75;;;;;;;;5045350;28;10731;-71
2024/01/19 13:48:35;;;;;;;;;1.00;0.00;;;;;;;;5044932;28;10745;-72
2024/01/19 13:51:00;;;;;;;;;2.00;0.75;;;;;;;;5045741;28;8800;-72
2024/01/19 13:53:25;;;;;;;;;4.50;1.00;;;;;;;;5046104;28;8799;-73
2024/01/19 13:55:53;;;;;;;;;0.00;0.00;;;;;;;;5044810;28;8863;-76
2024/01/19 13:58:21;;;;;;;;;1.00;1.00;;;;;;;;5032627;28;9549;-71
2024/01/19 14:00:47;;;;;;;;;2.00;1.00;;;;;;;;4986969;28;11504;-70
2024/01/19 14:03:13;;;;;;;;;3.00;1.00;;;;;;;;5029730;28;10814;-72
2024/01/19 14:05:38;;;;;;;;;1.50;1.00;;;;;;;;5039524;28;8856;-70
2024/01/19 14:08:05;;;;;;;;;0.00;0.00;;;;;;;;5036053;28;8839;-71
2024/01/19 14:10:30;;;;;;;;;0.00;0.00;;;;;;;;5031354;28;8776;-70
2024/01/19 14:12:56;;;;;;;;;1.50;0.50;;;;;;;;5030970;28;10939;-70
2024/01/19 14:15:21;;;;;;;;;0.75;0.75;;;;;;;;5046481;28;8909;-68
2024/01/19 14:17:46;;;;;;;;;1.25;0.25;;;;;;;;5044764;28;8839;-70
2024/01/19 14:20:12;;;;;;;;;1.00;1.00;;;;;;;;5030778;28;9561;-69
2024/01/19 14:22:38;;;;;;;;;0.00;0.00;;;;;;;;5031609;28;8901;-68
2024/01/19 14:25:06;;;;;;;;;1.50;1.50;;;;;;;;5030838;28;8851;-70
2024/01/19 14:27:31;;;;;;;;;1.50;1.00;;;;;;;;5028604;28;10662;-71
2024/01/19 14:29:57;;;;;;;;;2.75;1.75;;;;;;;;5031052;28;10518;-70
2024/01/19 14:32:24;;;;;;;;;2.00;1.00;;;;;;;;5017694;28;8818;-70
2024/01/19 14:34:49;;;;;;;;;2.00;1.00;;;;;;;;5031364;28;8932;-71
2024/01/19 14:37:14;;;;;;;;;2.25;1.00;;;;;;;;5029049;28;11194;-72
2024/01/19 14:39:40;;;;;;;;;5.00;3.00;;;;;;;;5031281;28;8833;-69
2024/01/19 14:42:05;;;;;;;;;1.25;1.25;;;;;;;;5031276;28;8821;-69
2024/01/19 14:44:31;;;;;;;;;0.50;0.50;;;;;;;;5031409;28;8797;-70
2024/01/19 14:46:56;;;;;;;;;2.75;1.00;;;;;;;;5028694;28;8868;-70
2024/01/19 14:49:31;;;;;;;;;3.00;0.50;;;;;;;;5031020;28;8968;-75
2024/01/19 14:51:57;;;;;;;;;1.00;1.00;;;;;;;;5030845;28;8807;-73
2024/01/19 14:54:24;;;;;;;;;5.00;0.50;;;;;;;;5030204;28;10490;-70
2024/01/19 14:56:49;;;;;;;;;2.25;1.00;;;;;;;;5028017;28;8831;-71
2024/01/19 14:59:15;;;;;;;;;2.75;1.75;;;;;;;;5031174;28;11296;-76
2024/01/19 15:01:40;;;;;;;;;1.00;1.00;;;;;;;;5030050;28;8957;-73
2024/01/19 15:04:05;;;;;;;;;1.50;0.00;;;;;;;;5030298;28;8855;-73
2024/01/19 15:06:31;;;;;;;;;4.75;1.00;;;;;;;;5029875;28;8859;-74
2024/01/19 15:08:56;;;;;;;;;5.00;5.00;;;;;;;;5027012;28;8911;-70
2024/01/19 15:11:22;;;;;;;;;9.75;8.75;;;;;;;;5030678;28;8819;-73
2024/01/19 15:13:47;;;;;;;;;12.00;10.25;;;;;;;;5029809;28;8831;-69
2024/01/19 15:16:13;;;;;;;;;11.00;10.00;;;;;;;;5029807;28;8885;-68
2024/01/19 15:18:38;;;;;;;;;13.00;9.00;;;;;;;;5026278;28;8954;-68
2024/01/19 15:21:04;;;;;;;;;19.75;13.00;;;;;;;;5028212;28;11164;-68
2024/01/19 15:23:29;;;;;;;;;8.75;6.00;;;;;;;;5029776;28;8806;-68
2024/01/19 15:25:54;;;;;;;;;15.75;13.50;;;;;;;;5029991;28;8845;-69
2024/01/19 15:28:19;;;;;;;;;11.00;9.00;;;;;;;;5027835;28;8820;-70
2024/01/19 15:30:45;;;;;;;;;13.25;10.50;;;;;;;;5027619;28;8838;-71
2024/01/19 15:33:10;;;;;;;;;11.50;10.25;;;;;;;;5029712;28;8914;-70
2024/01/19 15:35:36;;;;;;;;;6.75;5.00;;;;;;;;5029503;28;8819;-70
2024/01/19 15:38:01;;;;;;;;;9.75;7.00;;;;;;;;5028117;28;8802;-69
2024/01/19 15:40:26;;;;;;;;;6.25;5.75;;;;;;;;5029939;28;8801;-68
2024/01/19 15:42:51;;;;;;;;;5.00;5.00;;;;;;;;5030073;28;8794;-68
2024/01/19 15:45:17;;;;;;;;;5.00;5.00;;;;;;;;5029854;28;8904;-69
2024/01/19 15:47:42;;;;;;;;;8.00;3.50;;;;;;;;5027984;28;8811;-68
2024/01/19 15:50:08;;;;;;;;;3.00;3.00;;;;;;;;5029704;28;8788;-70
2024/01/19 15:52:33;;;;;;;;;2.00;2.00;;;;;;;;5030137;28;8803;-69
2024/01/19 15:54:58;;;;;;;;;11.50;11.00;;;;;;;;5029646;28;8918;-70
2024/01/19 15:57:24;;;;;;;;;10.00;7.50;;;;;;;;5026153;28;8836;-70
2024/01/19 15:59:49;;;;;;;;;13.00;10.00;;;;;;;;5045032;28;8807;-69
2024/01/19 16:02:14;;;;;;;;;6.50;6.00;;;;;;;;5029874;28;8800;-73
2024/01/19 16:04:41;;;;;;;;;0.75;0.00;;;;;;;;5029675;28;8830;-70
2024/01/19 16:07:06;;;;;;;;;0.00;0.00;;;;;;;;5027102;28;8829;-70
2024/01/19 16:09:32;;;;;;;;;0.25;0.25;;;;;;;;5027986;28;10872;-70
2024/01/19 16:11:57;;;;;;;;;1.25;0.00;;;;;;;;5029965;28;8819;-69
2024/01/19 16:14:22;;;;;;;;;0.25;0.25;;;;;;;;5029763;28;8873;-69
2024/01/19 16:16:47;;;;;;;;;0.00;0.00;;;;;;;;5027290;28;8838;-69
2024/01/19 16:19:13;;;;;;;;;0.00;0.00;;;;;;;;5027360;28;10383;-69
2024/01/19 16:21:39;;;;;;;;;1.00;1.00;;;;;;;;5018643;28;8803;-72
2024/01/19 16:24:05;;;;;;;;;11.50;8.25;;;;;;;;5009740;28;8794;-68
2024/01/19 16:26:30;;;;;;;;;1.00;0.00;;;;;;;;5009591;28;9563;-74
2024/01/19 16:28:56;;;;;;;;;0.25;0.25;;;;;;;;5027241;28;11416;-70
2024/01/19 16:31:21;;;;;;;;;1.00;0.50;;;;;;;;5029676;28;9526;-85
2024/01/19 16:33:47;;;;;;;;;0.50;0.50;;;;;;;;5028007;28;8827;-82
2024/01/19 16:36:13;;;;;;;;;0.00;0.00;;;;;;;;5029592;28;8796;-93
2024/01/19 16:38:40;;;;;;;;;1.00;0.00;;;;;;;;5027598;28;8812;-73
2024/01/19 16:41:05;;;;;;;;;0.00;0.00;;;;;;;;5029682;28;8787;-74
2024/01/19 16:43:30;;;;;;;;;1.00;1.00;;;;;;;;5029334;28;11386;-75
2024/01/19 16:45:58;;;;;;;;;1.50;1.25;;;;;;;;5028922;28;8843;-75
2024/01/19 16:48:23;;;;;;;;;4.50;4.00;;;;;;;;5026965;28;9502;-71
2024/01/19 16:50:48;;;;;;;;;1.00;0.00;;;;;;;;5028609;28;11491;-73
2024/01/19 16:53:14;;;;;;;;;1.00;1.00;;;;;;;;5028812;28;8811;-73
2024/01/19 16:55:39;;;;;;;;;1.00;1.00;;;;;;;;5028987;28;8804;-74
2024/01/19 16:58:05;;;;;;;;;0.50;0.00;;;;;;;;5026902;28;8816;-72
2024/01/19 17:00:31;;;;;;;;;0.00;0.00;;;;;;;;5029148;28;8827;-71
2024/01/19 17:02:56;;;;;;;;;1.00;1.00;;;;;;;;5028993;28;8807;-71
2024/01/19 17:05:22;;;;;;;;;1.00;1.00;;;;;;;;5028737;28;11482;-74
2024/01/19 17:07:47;;;;;;;;;0.00;0.00;;;;;;;;5026447;28;9022;-73
2024/01/19 17:10:13;;;;;;;;;0.00;0.00;;;;;;;;5028997;28;8821;-73
2024/01/19 17:12:42;;;;;;;;;0.25;0.00;;;;;;;;5028968;28;8993;-75
2024/01/19 17:15:08;;;;;;;;;0.00;0.00;;;;;;;;5027333;28;11420;-74
2024/01/19 17:17:36;;;;;;;;;1.00;0.00;;;;;;;;5023746;28;11436;-80
2024/01/19 17:20:02;;;;;;;;;0.00;0.00;;;;;;;;5025710;28;8862;-75
2024/01/19 17:22:28;;;;;;;;;1.00;0.00;;;;;;;;5028605;28;11406;-72
2024/01/19 17:24:53;;;;;;;;;0.00;0.00;;;;;;;;5028356;28;11504;-73
2024/01/19 17:27:18;;;;;;;;;0.00;0.00;;;;;;;;5026518;28;8824;-72
2024/01/19 17:29:43;;;;;;;;;0.00;0.00;;;;;;;;5028501;28;9554;-73
2024/01/19 17:32:09;;;;;;;;;0.00;0.00;;;;;;;;5029835;28;8835;-74
2024/01/19 17:34:34;;;;;;;;;0.00;0.00;;;;;;;;5030783;28;9435;-73
2024/01/19 17:37:00;;;;;;;;;0.00;0.00;;;;;;;;5043256;28;9046;-74
2024/01/19 17:39:25;;;;;;;;;0.00;0.00;;;;;;;;5029504;28;8844;-74
2024/01/19 17:41:51;;;;;;;;;0.00;0.00;;;;;;;;5031432;28;11510;-73
2024/01/19 17:44:16;;;;;;;;;0.00;0.00;;;;;;;;5031595;28;8846;-72
2024/01/19 17:46:41;;;;;;;;;0.00;0.00;;;;;;;;5029381;28;8874;-72
2024/01/19 17:49:07;;;;;;;;;0.00;0.00;;;;;;;;5031080;28;8821;-72
2024/01/19 17:51:32;;;;;;;;;0.00;0.00;;;;;;;;5031881;28;8912;-71
2024/01/19 17:53:57;;;;;;;;;0.00;0.00;;;;;;;;5031765;28;8811;-72
2024/01/19 17:56:23;;;;;;;;;0.00;0.00;;;;;;;;5031508;28;8805;-71
2024/01/19 17:58:48;;;;;;;;;0.00;0.00;;;;;;;;5044656;28;8809;-71
2024/01/19 18:01:13;;;;;;;;;0.00;0.00;;;;;;;;5030506;28;8824;-73
2024/01/19 18:03:38;;;;;;;;;0.00;0.00;;;;;;;;5031429;28;8907;-73
2024/01/19 18:06:04;;;;;;;;;0.00;0.00;;;;;;;;5031372;28;8829;-73
2024/01/19 18:08:29;;;;;;;;;0.00;0.00;;;;;;;;5029215;28;8812;-74
2024/01/19 18:10:58;;;;;;;;;0.00;0.00;;;;;;;;5031608;28;9586;-70
2024/01/19 18:13:23;;;;;;;;;0.00;0.00;;;;;;;;5031614;28;8848;-70
2024/01/19 18:15:48;;;;;;;;;0.00;0.00;;;;;;;;5028616;28;11584;-72
2024/01/19 18:18:14;;;;;;;;;0.00;0.00;;;;;;;;5029479;28;8974;-72
2024/01/19 18:20:40;;;;;;;;;0.00;0.00;;;;;;;;5046725;28;8909;-71
2024/01/19 18:23:05;;;;;;;;;0.00;0.00;;;;;;;;5031403;28;8815;-71
2024/01/19 18:25:30;;;;;;;;;1.00;0.00;;;;;;;;5031334;28;11517;-70
2024/01/19 18:27:56;;;;;;;;;0.00;0.00;;;;;;;;5044240;28;8832;-72
2024/01/19 18:30:21;;;;;;;;;0.00;0.00;;;;;;;;5031633;28;8818;-70
2024/01/19 18:32:46;;;;;;;;;0.00;0.00;;;;;;;;5029159;28;8842;-69
2024/01/19 18:35:12;;;;;;;;;0.00;0.00;;;;;;;;5022529;28;8824;-70
2024/01/19 18:37:37;;;;;;;;;0.00;0.00;;;;;;;;5028747;28;9047;-70
2024/01/19 18:40:03;;;;;;;;;0.00;0.00;;;;;;;;5031577;28;8788;-70
2024/01/19 18:42:28;;;;;;;;;0.00;0.00;;;;;;;;5031251;28;8808;-71
2024/01/19 18:44:53;;;;;;;;;0.00;0.00;;;;;;;;5024620;28;8854;-71
2024/01/19 18:47:18;;;;;;;;;0.00;0.00;;;;;;;;5015880;28;8902;-71
2024/01/19 18:49:44;;;;;;;;;0.00;0.00;;;;;;;;5030672;28;8812;-72
2024/01/19 18:52:09;;;;;;;;;0.00;0.00;;;;;;;;5043962;28;8848;-71
2024/01/19 18:54:34;;;;;;;;;0.00;0.00;;;;;;;;4923310;28;12146;-73
2024/01/19 18:57:00;;;;;;;;;0.00;0.00;;;;;;;;5002038;28;10887;-73
2024/01/19 18:59:25;;;;;;;;;0.00;0.00;;;;;;;;5030051;28;8952;-75
2024/01/19 19:01:51;;;;;;;;;0.00;0.00;;;;;;;;5030355;28;8835;-73
2024/01/19 19:04:16;;;;;;;;;0.00;0.00;;;;;;;;5030816;28;8856;-74
2024/01/19 19:06:41;;;;;;;;;0.00;0.00;;;;;;;;5028485;28;9547;-73
2024/01/19 19:09:07;;;;;;;;;0.00;0.00;;;;;;;;5030058;28;8942;-73
2024/01/19 19:11:32;;;;;;;;;0.00;0.00;;;;;;;;5029788;28;8793;-73
2024/01/19 19:13:58;;;;;;;;;0.00;0.00;;;;;;;;5029575;28;9022;-71
2024/01/19 19:16:25;;;;;;;;;0.00;0.00;;;;;;;;5030370;28;8805;-70
2024/01/19 19:18:50;;;;;;;;;0.00;0.00;;;;;;;;5030087;28;11422;-71
2024/01/19 19:21:16;;;;;;;;;0.00;0.00;;;;;;;;5030445;28;11440;-71
2024/01/19 19:23:42;;;;;;;;;0.00;0.00;;;;;;;;5028551;28;8789;-71
2024/01/19 19:26:15;;;;;;;;;0.00;0.00;;;;;;;;5025913;28;11620;-71
2024/01/19 19:28:41;;;;;;;;;0.00;0.00;;;;;;;;5027706;28;11472;-69
2024/01/19 19:31:07;;;;;;;;;0.00;0.00;;;;;;;;5028833;28;11469;-69
2024/01/19 19:33:33;;;;;;;;;0.00;0.00;;;;;;;;5039764;28;11415;-70
2024/01/19 19:35:59;;;;;;;;;0.00;0.00;;;;;;;;5050180;28;8802;-73
2024/01/19 19:38:24;;;;;;;;;0.00;0.00;;;;;;;;5048957;28;11445;-71
2024/01/19 19:40:51;;;;;;;;;0.00;0.00;;;;;;;;5048722;28;8817;-72
2024/01/19 19:43:16;;;;;;;;;0.00;0.00;;;;;;;;5046727;28;8838;-70
2024/01/19 19:45:41;;;;;;;;;0.00;0.00;;;;;;;;5049742;28;11466;-71
2024/01/19 19:48:08;;;;;;;;;0.00;0.00;;;;;;;;5043064;28;8793;-73
2024/01/19 19:50:33;;;;;;;;;0.00;0.00;;;;;;;;5030161;28;8824;-73
2024/01/19 19:52:59;;;;;;;;;0.00;0.00;;;;;;;;5030290;28;11420;-74
2024/01/19 19:55:24;;;;;;;;;0.00;0.00;;;;;;;;5029724;28;8851;-73
2024/01/19 19:57:49;;;;;;;;;0.00;0.00;;;;;;;;5028066;28;8827;-73
2024/01/19 20:00:15;;;;;;;;;0.00;0.00;;;;;;;;5029773;28;8789;-78
2024/01/19 20:02:40;;;;;;;;;0.00;0.00;;;;;;;;5029715;28;8924;-73
2024/01/19 20:05:13;;;;;;;;;1.00;1.00;;;;;;;;5029176;28;8930;-74
2024/01/19 20:07:39;;;;;;;;;0.00;0.00;;;;;;;;5026402;28;8890;-74
2024/01/19 20:10:04;;;;;;;;;7.00;7.00;;;;;;;;5027986;28;11483;-75
2024/01/19 20:12:31;;;;;;;;;0.00;0.00;;;;;;;;5028137;28;8856;-74
2024/01/19 20:14:56;;;;;;;;;0.00;0.00;;;;;;;;5028208;28;8922;-75
2024/01/19 20:17:21;;;;;;;;;0.00;0.00;;;;;;;;5029471;28;11557;-74
2024/01/19 20:19:47;;;;;;;;;0.00;0.00;;;;;;;;5029320;28;8886;-75
2024/01/19 20:22:12;;;;;;;;;0.00;0.00;;;;;;;;5029328;28;8992;-77
2024/01/19 20:24:37;;;;;;;;;0.00;0.00;;;;;;;;5029169;28;8782;-76
2024/01/19 20:27:03;;;;;;;;;0.00;0.00;;;;;;;;5029024;28;8844;-74
2024/01/19 20:29:28;;;;;;;;;0.00;0.00;;;;;;;;5029291;28;8844;-74
2024/01/19 20:31:53;;;;;;;;;0.00;0.00;;;;;;;;5029472;28;8786;-73
2024/01/19 20:34:19;;;;;;;;;0.00;0.00;;;;;;;;5029126;28;8794;-73
2024/01/19 20:36:44;;;;;;;;;0.00;0.00;;;;;;;;5029200;28;8821;-74
2024/01/19 20:39:10;;;;;;;;;0.00;0.00;;;;;;;;5029087;28;8790;-73
2024/01/19 20:41:35;;;;;;;;;0.00;0.00;;;;;;;;5027761;28;8920;-72
2024/01/19 20:44:01;;;;;;;;;0.00;0.00;;;;;;;;5028995;28;8824;-73
2024/01/19 20:46:26;;;;;;;;;0.00;0.00;;;;;;;;5027539;28;8865;-75
2024/01/19 20:48:52;;;;;;;;;0.00;0.00;;;;;;;;5029165;28;8817;-73
2024/01/19 20:51:17;;;;;;;;;0.00;0.00;;;;;;;;5027814;28;8839;-70
2024/01/19 20:53:43;;;;;;;;;0.00;0.00;;;;;;;;5029253;28;8789;-71
2024/01/19 20:56:08;;;;;;;;;0.00;0.00;;;;;;;;5028847;28;8821;-70
2024/01/19 20:58:33;;;;;;;;;1.00;0.00;;;;;;;;5026278;28;8890;-69
2024/01/19 21:00:59;;;;;;;;;0.00;0.00;;;;;;;;5028967;28;8801;-70
2024/01/19 21:03:24;;;;;;;;;0.00;0.00;;;;;;;;5023238;28;9581;-71
2024/01/19 21:05:49;;;;;;;;;0.00;0.00;;;;;;;;5027056;28;8883;-72
2024/01/19 21:08:15;;;;;;;;;0.00;0.00;;;;;;;;5029191;28;8827;-71
2024/01/19 21:10:40;;;;;;;;;0.00;0.00;;;;;;;;5031002;28;8832;-71
2024/01/19 21:13:05;;;;;;;;;0.00;0.00;;;;;;;;5031509;28;8819;-72
2024/01/19 21:15:30;;;;;;;;;0.00;0.00;;;;;;;;5027396;28;8817;-72
2024/01/19 21:17:56;;;;;;;;;0.00;0.00;;;;;;;;5032628;28;8805;-72
2024/01/19 21:20:22;;;;;;;;;0.00;0.00;;;;;;;;5032624;28;8847;-72
2024/01/19 21:22:49;;;;;;;;;0.00;0.00;;;;;;;;5032734;28;8956;-70
2024/01/19 21:25:14;;;;;;;;;0.00;0.00;;;;;;;;5030706;28;11542;-70
2024/01/19 21:27:40;;;;;;;;;0.00;0.00;;;;;;;;5032802;28;11425;-69
2024/01/19 21:30:10;;;;;;;;;0.00;0.00;;;;;;;;5032565;28;8904;-71
2024/01/19 21:32:35;;;;;;;;;0.00;0.00;;;;;;;;5032428;28;9643;-70
2024/01/19 21:35:00;;;;;;;;;0.00;0.00;;;;;;;;5032278;28;11444;-71
2024/01/19 21:37:26;;;;;;;;;0.00;0.00;;;;;;;;5032230;28;8786;-70
2024/01/19 21:39:53;;;;;;;;;0.00;0.00;;;;;;;;5032045;28;8810;-70
2024/01/19 21:42:18;;;;;;;;;1.00;0.00;;;;;;;;5032204;28;8809;-71
2024/01/19 21:44:43;;;;;;;;;0.00;0.00;;;;;;;;5031555;28;11520;-71
2024/01/19 21:47:09;;;;;;;;;1.00;0.00;;;;;;;;5032301;28;8825;-70
2024/01/19 21:49:38;;;;;;;;;0.00;0.00;;;;;;;;5030823;28;8805;-70
2024/01/19 21:52:03;;;;;;;;;0.00;0.00;;;;;;;;5031856;28;8832;-70
2024/01/19 21:54:29;;;;;;;;;0.00;0.00;;;;;;;;5029537;28;11449;-70
2024/01/19 21:56:54;;;;;;;;;0.00;0.00;;;;;;;;5031964;28;8817;-70
2024/01/19 21:59:19;;;;;;;;;0.00;0.00;;;;;;;;5031834;28;8828;-70
2024/01/19 22:01:46;;;;;;;;;0.00;0.00;;;;;;;;5031779;28;8815;-70
2024/01/19 22:04:12;;;;;;;;;0.00;0.00;;;;;;;;5030629;28;8821;-70
2024/01/19 22:06:37;;;;;;;;;0.00;0.00;;;;;;;;5030429;28;11473;-70
2024/01/19 22:09:03;;;;;;;;;0.00;0.00;;;;;;;;5031404;28;8801;-70
2024/01/19 22:11:28;;;;;;;;;0.00;0.00;;;;;;;;5031327;28;8924;-70
2024/01/19 22:13:53;;;;;;;;;0.00;0.00;;;;;;;;5031470;28;11697;-70
2024/01/19 22:16:19;;;;;;;;;0.00;0.00;;;;;;;;5031160;28;8917;-70
2024/01/19 22:18:44;;;;;;;;;0.00;0.00;;;;;;;;5031021;28;8875;-70
2024/01/19 22:21:09;;;;;;;;;0.00;0.00;;;;;;;;5030752;28;8824;-71
2024/01/19 22:23:38;;;;;;;;;0.00;0.00;;;;;;;;5030336;28;8874;-70
2024/01/19 22:26:06;;;;;;;;;0.00;0.00;;;;;;;;5030629;28;8837;-71
2024/01/19 22:28:34;;;;;;;;;0.00;0.00;;;;;;;;5030869;28;11541;-71
2024/01/19 22:30:59;;;;;;;;;0.00;0.00;;;;;;;;5030652;28;11449;-70
2024/01/19 22:33:24;;;;;;;;;0.00;0.00;;;;;;;;5030653;28;11527;-70
2024/01/19 22:35:50;;;;;;;;;0.00;0.00;;;;;;;;5030296;28;8900;-71
2024/01/19 22:38:15;;;;;;;;;0.00;0.00;;;;;;;;5031115;28;9573;-70
2024/01/19 22:40:40;;;;;;;;;0.00;0.00;;;;;;;;5030037;28;8829;-70
2024/01/19 22:43:06;;;;;;;;;1.00;0.00;;;;;;;;5031555;28;8902;-69
2024/01/19 22:45:31;;;;;;;;;0.00;0.00;;;;;;;;5031179;28;8821;-72
2024/01/19 22:47:56;;;;;;;;;0.00;0.00;;;;;;;;5031493;28;8916;-71
2024/01/19 22:50:22;;;;;;;;;1.00;0.00;;;;;;;;5031636;28;8793;-72
2024/01/19 22:52:47;;;;;;;;;0.00;0.00;;;;;;;;5031623;28;8896;-74
2024/01/19 22:55:12;;;;;;;;;0.00;0.00;;;;;;;;5031384;28;8801;-76
2024/01/19 22:57:37;;;;;;;;;1.00;0.00;;;;;;;;5031274;28;8781;-72
2024/01/19 23:00:08;;;;;;;;;0.00;0.00;;;;;;;;5031137;28;8789;-72
2024/01/19 23:02:34;;;;;;;;;0.00;0.00;;;;;;;;5031567;28;8777;-72
2024/01/19 23:05:02;;;;;;;;;0.00;0.00;;;;;;;;5030391;28;11475;-72
2024/01/19 23:07:27;;;;;;;;;0.00;0.00;;;;;;;;5030736;28;8797;-70
2024/01/19 23:09:53;;;;;;;;;0.00;0.00;;;;;;;;5030793;28;11523;-72
2024/01/19 23:12:18;;;;;;;;;0.00;0.00;;;;;;;;5031163;28;8908;-73
2024/01/19 23:14:43;;;;;;;;;0.00;0.00;;;;;;;;5031024;28;8810;-72
2024/01/19 23:17:08;;;;;;;;;0.00;0.00;;;;;;;;5030888;28;8790;-73
2024/01/19 23:19:34;;;;;;;;;0.00;0.00;;;;;;;;5030957;28;8916;-73
2024/01/19 23:22:00;;;;;;;;;1.00;0.00;;;;;;;;5030605;28;8801;-73
2024/01/19 23:24:26;;;;;;;;;0.25;0.00;;;;;;;;5029007;28;8840;-73
2024/01/19 23:26:51;;;;;;;;;0.00;0.00;;;;;;;;5030358;28;11478;-73
2024/01/19 23:29:16;;;;;;;;;0.00;0.00;;;;;;;;5029727;28;8786;-73
2024/01/19 23:31:43;;;;;;;;;0.00;0.00;;;;;;;;5030248;28;8793;-73
2024/01/19 23:34:10;;;;;;;;;0.00;0.00;;;;;;;;5030660;28;8797;-74
2024/01/19 23:36:36;;;;;;;;;0.00;0.00;;;;;;;;5030712;28;12316;-73
2024/01/19 23:39:01;;;;;;;;;0.00;0.00;;;;;;;;5030357;28;11422;-73
2024/01/19 23:41:27;;;;;;;;;0.00;0.00;;;;;;;;5030548;28;8812;-73
2024/01/19 23:43:52;;;;;;;;;0.00;0.00;;;;;;;;5030549;28;8797;-74
2024/01/19 23:46:17;;;;;;;;;0.00;0.00;;;;;;;;5030003;28;9648;-73
2024/01/19 23:48:43;;;;;;;;;0.00;0.00;;;;;;;;5030435;28;8787;-74
